Tiempo atmosférico en la estación meteorológica de Hellín, Albacete (520 m.)



Fecha
DESCASC
Temp. máxima en grados centígrados (hora)
DESCASC
Temp. mínima en grados centígrados (hora)
DESCASC
Temp. media en grados centígrados
DESCASC
Racha de viento máxima en m/sg (hora)
DESCASC
Velocidad máxima media en intervalos de 10 minutos(hora)
DESCASC
Precipitaciones diarias en mm
DESCASC
Precipitaciones de 00:00 a 06:00 en mm
DESCASC
Precipitaciones de 06:00 a 12:00 en mm
DESCASC
Precipitaciones de 12:00 a 18:00 en mm
DESCASC
Precipitaciones de 18:00 a 24:00 en mm
DESCASC
26-11-2020 15.6 (16:10) 9.3 (08:30) 12.5 10 (12:00) 6.39 (12:00) 0 0 0 0 0
25-11-2020 15.1 (15:30) 3.9 (04:10) 9.5 4.44 (19:00) 2.78 (18:50) 0 0 0 0 0
24-11-2020 13.5 (15:50) 4.8 (02:30) 9.2 2.78 (15:50) 1.67 (21:40) 0 0 0 0 0
23-11-2020 15.6 (15:50) 2.3 (07:50) 9 4.17 (15:30) 2.5 (15:30) 0 0 0 0 0
22-11-2020 15.7 (16:50) 4.5 (00:00) 10.1 3.61 (14:30) 1.67 (00:40) 0 0 0 0 0
21-11-2020 15.9 (15:50) 7 (00:00) 11.4 5 (12:20) 3.06 (13:00) 0 0 0 0 0
20-11-2020 17.2 (14:40) 8.4 (00:00) 12.8 8.33 (05:50) 5 (05:50) 0 0 0 0 0
19-11-2020 20.3 (16:10) 8.5 (00:00) 14.4 4.44 (22:50) 2.78 (22:50) 0 0 0 0 0
18-11-2020 21.2 (15:50) 7.9 (00:00) 14.6 3.89 (08:40) 2.78 (08:20) 0 0 0 0 0
17-11-2020 21.3 (16:10) 9.1 (00:00) 15.2 4.17 (23:00) 2.22 (20:40) 0 0 0 0 0
16-11-2020 20.3 (15:20) 12.7 (00:00) 16.5 6.67 (12:20) 3.89 (12:00) 0.1 0 0 0.1 0
15-11-2020 22.5 (16:30) 11.1 (00:00) 16.8 4.44 (07:50) 3.06 (07:50) 0 0 0 0 0
14-11-2020 16.1 (14:40) 12.5 (00:00) 14.3 2.22 (15:00) 1.11 (03:10) 0.3 0 0.3 0 0
13-11-2020 19.4 (15:20) 11.3 (00:00) 15.3 4.72 (20:10) 2.78 (20:10) 0 0 0 0 0
12-11-2020 18 (16:30) 7.3 (00:00) 12.7 5.56 (17:20) 3.61 (17:40) 0 0 0 0 0
11-11-2020 17.9 (16:00) 9.7 (00:00) 13.8 5.56 (13:30) 2.78 (13:30) 0 0 0 0 0
10-11-2020 18.8 (15:50) 9.6 (00:00) 14.2 6.67 (06:20) 4.17 (06:10) 0.1 0.1 0 0 0
09-11-2020 20 (14:30) 8.1 (00:00) 14.1 5 (22:00) 3.33 (22:00) 2.8 0 0 0 2.8
08-11-2020 18.3 (14:50) 7.9 (00:00) 13.1 4.72 (00:50) 2.78 (00:40) 0 0 0 0 0
07-11-2020 18.5 (14:50) 11 (00:00) 14.8 15.56 (04:20) 6.11 (04:20) 6 5.6 0.4 0 0
06-11-2020 18.9 (14:30) 11.8 (00:00) 15.3 6.39 (18:50) 3.61 (18:50) 0 0 0 0 0
05-11-2020 15.4 (15:00) 10.9 (00:00) 13.1 12.22 (02:40) 7.22 (04:30) 26.3 0.1 12 14.1 0.1
04-11-2020 14.3 (00:00) 10.3 (00:00) 12.3 11.11 (16:50) 6.67 (18:20) 35.8 0 6.7 27.9 1.2
03-11-2020 23.1 (14:10) 10.8 (00:00) 17 5.56 (15:50) 3.33 (17:00) 0 0 0 0 0
02-11-2020 26.6 (15:50) 11.7 (00:00) 19.2 6.11 (04:50) 3.61 (04:40) 0 0 0 0 0
01-11-2020 25.7 (15:10) 12.6 (00:00) 19.2 5.83 (22:00) 4.17 (22:00) 0 0 0 0 0
31-10-2020 25.6 (15:30) 9 (00:00) 17.3 9.17 (14:50) 3.61 (15:40) 0 0 0 0 0
30-10-2020 24.2 (16:00) 8.9 (00:00) 16.6 4.72 (14:10) 2.78 (04:10) 0 0 0 0 0
29-10-2020 23.7 (15:50) 9.8 (00:00) 16.8 6.94 (01:20) 3.89 (01:20) 0 0 0 0 0
28-10-2020 21 (15:50) 8.9 (00:00) 14.9 8.33 (03:50) 5 (11:00) 0 0 0 0 0

Gráficas

Temp. máximas Temp. mínimas Temp. medias Precipitaciones Rachas de viento máximas Velocidades máximas media en intervalos de 10 minutos

Datos horarios

Fecha y hora oficial Temperatura (ºC) Velocidad del viento (km/h) Dirección del viento Racha (km/h) Dirección de racha Precipitación (mm) Presión (hPa) Tendencia (hPa) Humedad (%)
2020-11-26 23:00:00 11.9 19 Nordeste 30 Nordeste 0 941.2 -0.6 71
2020-11-26 22:00:00 11.8 15 Nordeste 26 Norte 0 941.5 0 70
2020-11-26 21:00:00 11.7 13 Norte 27 Norte 0 941.6 -- 69
2020-11-26 20:00:00 12.6 14 Norte 27 Norte 0 941.8 -- 65
2020-11-26 19:00:00 13 13 Norte 32 Nordeste 0 941.5 -- 61
2020-11-26 18:00:00 13.6 10 Norte 25 Nordeste 0 941 -- 61
2020-11-26 17:00:00 14.7 11 Nordeste 24 Nordeste 0 941 -- 53
2020-11-26 16:00:00 15.5 8 Nordeste 26 Norte 0 940.4 -- 55
2020-11-26 15:00:00 15.3 10 Norte 31 Norte 0 940.7 -- 56
2020-11-26 14:00:00 14.8 12 Norte 33 Norte 0 941.1 -- 62
2020-11-26 13:00:00 14.9 11 Norte 36 Noroeste 0 941.6 -- 63
2020-11-26 12:00:00 13.6 23 Noroeste 36 Noroeste 0 941.9 -- 71
2020-11-26 11:00:00 11.9 13 Noroeste 23 Noroeste 0 943.1 -- 82
2020-11-26 10:00:00 10.4 11 Noroeste 23 Oeste 0 943 -- 94
2020-11-26 09:00:00 9.5 7 Oeste 15 Noroeste 0 943.1 -- 94
2020-11-26 08:00:00 9.4 8 Noroeste 27 Oeste 0 942.8 -- 94
2020-11-26 07:00:00 9.7 4 Oeste 13 Noroeste 0 943 -- 93
2020-11-26 06:00:00 9.6 7 Noroeste 14 Noroeste 0 942.9 -- 92
2020-11-26 05:00:00 9.7 9 Noroeste 13 Noroeste 0 943.3 -- 92
2020-11-26 04:00:00 10 7 Noroeste 15 Noroeste 0 943.6 -- 92
2020-11-26 03:00:00 9.6 6 Noroeste 12 Noroeste 0 943.8 -- 92
2020-11-26 02:00:00 9.5 8 Noroeste 13 Oeste 0 944.2 -- 91
2020-11-26 01:00:00 9.7 8 Oeste 13 Oeste 0 944.7 -- 90
2020-11-26 00:00:00 9.5 8 Noroeste 13 Noroeste 0 945 -- 90
2020-11-25 23:00:00 9.4 5 Oeste 13 Noroeste 0 945.2 -- 90
2020-11-25 22:00:00 9.5 4 Oeste 9 Noroeste 0 945.2 -- 90
2020-11-25 21:00:00 9.9 4 Norte 10 Norte 0 944.9 -- 89
2020-11-25 20:00:00 10.4 3 Nordeste 13 Nordeste 0 944.9 -- 83
2020-11-25 19:00:00 11.3 9 Nordeste 16 Nordeste 0 944.6 -- 76
2020-11-25 18:00:00 12.1 5 Nordeste 14 Nordeste 0 944.5 -- 63
2020-11-25 17:00:00 14.1 9 Nordeste 14 Nordeste 0 944.3 -- 53
2020-11-25 16:00:00 15 6 Este 15 Nordeste 0 944.3 -- 52
2020-11-25 15:00:00 14.5 5 Norte 12 Noroeste 0 944.8 -- 54
2020-11-25 14:00:00 13 5 Norte 10 Noroeste 0 945.7 -- 62
2020-11-25 13:00:00 11.6 3 Este 11 Nordeste 0 947 -- 99
2020-11-25 12:00:00 8.7 0 Calma 6 Norte 0 947.6 -- 99
2020-11-25 11:00:00 6.5 4 Oeste 8 Noroeste 0 948.2 -- 99
2020-11-25 10:00:00 6 4 Oeste 9 Noroeste 0 948.2 -- 99
2020-11-25 09:00:00 5.3 4 Oeste 12 Sudoeste 0 948.3 -- 99
2020-11-25 08:00:00 5.3 3 Sudoeste 8 Oeste 0 948.6 -- 99
2020-11-25 07:00:00 5.6 0 Calma 6 Sudeste 0 948.4 -- 99
2020-11-25 06:00:00 5.8 0 Calma 6 Sudoeste 0 948.1 -- 99
2020-11-25 05:00:00 5.4 2 Sudoeste 8 Sudoeste 0 948.3 -- 98
2020-11-25 04:00:00 4.2 2 Oeste 7 Sudoeste 0 948.6 -- 96
2020-11-25 03:00:00 4.3 0 Calma 6 Sudoeste 0 949.1 -- 95
2020-11-25 02:00:00 5.2 4 Oeste 8 Sudoeste 0 949.3 -- 93
2020-11-25 01:00:00 5.6 6 Sudoeste 9 Sudoeste 0 950.1 -- 91
2020-11-25 00:00:00 6 0 Calma 9 Sudoeste 0 950.4 -- 90
2020-11-24 23:00:00 6.6 6 Sudoeste 8 Sudoeste 0 950.6 -- 89
2020-11-24 22:00:00 7.4 6 Sudoeste 8 Sudoeste 0 950.8 -- 86
2020-11-24 21:00:00 7.5 4 Sudoeste 5 Sudoeste 0 950.9 -- 84
2020-11-24 20:00:00 8.2 0 Calma 4 Sudoeste 0 950.9 -- 80
2020-11-24 19:00:00 8.7 0 Calma 4 Sudeste 0 950.7 -- 74
2020-11-24 18:00:00 10.7 2 Sudeste 7 Nordeste 0 950.7 -- 63
2020-11-24 17:00:00 12.9 4 Nordeste 9 Nordeste 0 950.7 -- 57
2020-11-24 16:00:00 13.4 3 Nordeste 10 Nordeste 0 950.8 -- 57
2020-11-24 15:00:00 11.7 2 Noroeste 10 Noroeste 0 951.4 -- 71
2020-11-24 14:00:00 10.7 3 Oeste 10 Noroeste 0 952.2 -- 84
2020-11-24 13:00:00 8.3 3 Oeste 10 Noroeste 0 953.1 -- 99
2020-11-24 12:00:00 7.3 3 Noroeste 8 Noroeste 0 954.2 -- 99
2020-11-24 11:00:00 6.6 2 Norte 7 Noroeste 0 954.5 -- 99
2020-11-24 10:00:00 6.3 0 Calma 6 Norte 0 954.7 -- 99
2020-11-24 09:00:00 6.2 0 Calma -- -- 0 954.7 -- 99
2020-11-24 08:00:00 6.1 0 Calma 5 Sur 0 954.2 -- 99
2020-11-24 07:00:00 6.6 0 Calma 4 Sudoeste 0 954.2 -- 99
2020-11-24 06:00:00 6.6 0 Calma 4 Sudoeste 0 954.3 -- 99
2020-11-24 05:00:00 6.3 0 Calma 4 Sudeste 0 954.6 -- 99
2020-11-24 04:00:00 4.9 0 Calma 6 Sudoeste 0 954.8 -- 98
2020-11-24 03:00:00 5.2 3 Oeste 4 Oeste 0 955.2 -- 97
2020-11-24 02:00:00 5.3 0 Calma -- -- 0 955.6 -- 96
2020-11-24 01:00:00 5.7 0 Calma -- -- 0 956.2 -- 95
2020-11-24 00:00:00 6.4 0 Calma 4 Sur 0 956.4 -- 93
2020-11-23 23:00:00 6.9 0 Calma 2 Nordeste 0 956.7 -- 90
2020-11-23 22:00:00 7.1 0 Calma 5 Sudeste 0 956.9 -- 86
2020-11-23 21:00:00 7.6 0 Calma 5 Sudeste 0 956.7 -- 77
2020-11-23 20:00:00 8.2 0 Calma -- -- 0 956.5 -- 70
2020-11-23 19:00:00 9.8 0 Calma 6 Nordeste 0 956.3 -- 61
2020-11-23 18:00:00 12.4 0 Calma 9 Nordeste 0 956 -- 50
2020-11-23 17:00:00 15 6 Nordeste 12 Nordeste 0 955.5 -- 42
2020-11-23 16:00:00 15.3 6 Nordeste 15 Nordeste 0 955.6 -- 42
2020-11-23 15:00:00 15.2 6 Nordeste 14 Norte 0 956 -- 45
2020-11-23 14:00:00 14 5 Nordeste 13 Nordeste 0 956.5 -- 53
2020-11-23 13:00:00 12.9 4 Norte 10 Nordeste 0 957.4 -- 61
2020-11-23 12:00:00 11.6 4 Nordeste 8 Nordeste 0 958.2 -- 69
2020-11-23 11:00:00 9.7 3 Norte 6 Nordeste 0 958.4 -- 80
2020-11-23 10:00:00 6.9 0 Calma 5 Sudoeste 0 958.2 -- 97
2020-11-23 09:00:00 3.5 0 Calma 4 Noroeste 0 958 -- 97
2020-11-23 08:00:00 2.4 0 Calma 6 Sudoeste 0 957.5 -- 94
2020-11-23 07:00:00 4 4 Sudoeste 12 Sudoeste 0 957.2 -- 94
2020-11-23 06:00:00 4.4 8 Sudoeste 12 Sudoeste 0 957.1 -- 94
2020-11-23 05:00:00 4.2 5 Sudoeste 8 Sudoeste 0 956.8 -- 94
2020-11-23 04:00:00 4.1 0 Calma 6 Sudoeste 0 956.8 -- 92
2020-11-23 03:00:00 4.7 0 Calma 10 Sudoeste 0 957 -- 90
2020-11-23 02:00:00 5.2 5 Oeste 9 Sudoeste 0 957 -- 87
2020-11-23 01:00:00 5.9 4 Sudoeste 6 Sudoeste 0 957.1 -- 83
2020-11-23 00:00:00 6.3 5 Sudoeste 8 Sudoeste 0 957.2 -- 80
2020-11-22 23:00:00 6.6 5 Sudoeste 7 Sudoeste 0 957.3 -- 77
2020-11-22 22:00:00 7.1 0 Calma -- -- 0 957.1 -- 70
2020-11-22 21:00:00 7.7 0 Calma -- -- 0 957.1 -- 66
2020-11-22 20:00:00 8.2 0 Calma -- -- 0 956.9 -- 63
2020-11-22 19:00:00 9.7 0 Calma 5 Sur 0 956.4 -- 55
2020-11-22 18:00:00 12.6 0 Calma 3 Sudeste 0 956 -- 46
2020-11-22 17:00:00 15.5 0 Calma 8 Nordeste 0 955.8 -- 40
2020-11-22 16:00:00 14.7 0 Calma 9 Nordeste 0 955.7 -- 42
2020-11-22 15:00:00 15.2 4 Nordeste 13 Nordeste 0 956 -- 45
2020-11-22 14:00:00 14.1 2 Norte 12 Nordeste 0 956.6 -- 54
2020-11-22 13:00:00 13.3 4 Nordeste 11 Nordeste 0 957.3 -- 60
2020-11-22 12:00:00 11.5 2 Sudoeste 7 Noroeste 0 958 -- 72
2020-11-22 11:00:00 10 0 Calma 4 Nordeste 0 958.5 -- 94
2020-11-22 10:00:00 8 0 Calma 4 Nordeste 0 958.4 -- 99
2020-11-22 09:00:00 5.7 0 Calma 6 Oeste 0 958 -- 99
2020-11-22 08:00:00 4.8 0 Calma 8 Este 0 957.9 -- 98
2020-11-22 07:00:00 6.4 0 Calma 7 Este 0 957.6 -- 98
2020-11-22 06:00:00 6.5 0 Calma 5 Sur 0 957.4 -- 97
2020-11-22 05:00:00 6.9 0 Calma -- -- 0 957.3 -- 97
2020-11-22 04:00:00 7 0 Calma 3 Oeste 0 957.4 -- 97
2020-11-22 03:00:00 6.5 0 Calma 7 Oeste 0 957.6 -- 97
2020-11-22 02:00:00 6.6 4 Oeste 8 Oeste 0 958 -- 95
2020-11-22 01:00:00 6.8 5 Oeste 9 Oeste 0 958.4 -- 92
2020-11-22 00:00:00 7.2 5 Oeste 8 Sudoeste 0 958.8 -- 90
2020-11-21 23:00:00 7.4 5 Oeste 7 Oeste 0 958.9 -- 88
2020-11-21 22:00:00 8 0 Calma 5 Noroeste 0 958.9 -- 84
2020-11-21 21:00:00 8.7 0 Calma 8 Nordeste 0 958.7 -- 78
2020-11-21 20:00:00 9.8 4 Nordeste 13 Nordeste 0 958.2 -- 65
2020-11-21 19:00:00 10.6 0 Calma 8 Nordeste 0 957.7 -- 55
2020-11-21 18:00:00 12.6 4 Nordeste 15 Nordeste 0 956.9 -- 47
2020-11-21 17:00:00 15.3 8 Nordeste 15 Norte 0 956.8 -- 42
2020-11-21 16:00:00 15.8 7 Norte 17 Norte 0 956.7 -- 41
2020-11-21 15:00:00 15.1 9 Norte 18 Norte 0 956.8 -- 45
2020-11-21 14:00:00 15.2 5 Norte 16 Nordeste 0 957 -- 51
2020-11-21 13:00:00 14.5 11 Nordeste 18 Nordeste 0 957.4 -- 54
2020-11-21 12:00:00 13.8 8 Nordeste 15 Norte 0 958.2 -- 69
2020-11-21 11:00:00 12.5 5 Nordeste 11 Norte 0 958.4 -- 82
2020-11-21 10:00:00 9.9 0 Calma 6 Este 0 958 -- 97
2020-11-21 09:00:00 9.2 0 Calma 5 Nordeste 0 957.6 -- 97
2020-11-21 08:00:00 8.9 0 Calma 5 Oeste 0 957.1 -- 96
2020-11-21 07:00:00 9.1 0 Calma -- -- 0 956.6 -- 95
2020-11-21 06:00:00 9 0 Calma 7 Oeste 0 956.5 -- 94
2020-11-21 05:00:00 9.2 0 Calma 6 Sudoeste 0 956.4 -- 94
2020-11-21 04:00:00 8.9 4 Oeste 8 Sudoeste 0 956.5 -- 94
2020-11-21 03:00:00 9.1 4 Sudoeste 6 Sudoeste 0 956.4 -- 94
2020-11-21 02:00:00 9 0 Calma 4 Oeste 0 956.4 -- 94
2020-11-21 01:00:00 9 3 Oeste 6 Oeste 0 956.9 -- 91
2020-11-21 00:00:00 8.9 0 Calma -- -- 0 956.9 -- 86
2020-11-20 23:00:00 8.7 0 Calma -- -- 0 956.9 -- 82
2020-11-20 22:00:00 9.4 0 Calma 3 Sudoeste 0 956.9 -- 59
2020-11-20 21:00:00 10.9 0 Calma 13 Sudoeste 0 956.2 -- 48
2020-11-20 20:00:00 11.9 9 Sudoeste 17 Sudoeste 0 955.7 -- 45
2020-11-20 19:00:00 12.5 5 Sudoeste 12 Sur 0 955.6 -- 42
2020-11-20 18:00:00 14.3 8 Sur 14 Sur 0 955.5 -- 39
2020-11-20 17:00:00 16.3 9 Sudoeste 16 Sudoeste 0 955.3 -- 37
2020-11-20 16:00:00 17.2 12 Sur 20 Sur 0 955.4 -- 38
2020-11-20 15:00:00 17 8 Sur 17 Sudoeste 0 955.6 -- 38
2020-11-20 14:00:00 16.5 10 Sudoeste 19 Sudoeste 0 956.8 -- 38
2020-11-20 13:00:00 15.4 12 Sudoeste 22 Sudoeste 0 957.5 -- 45
2020-11-20 12:00:00 14.5 13 Oeste 24 Sudoeste 0 958.1 -- 44
2020-11-20 11:00:00 13.5 9 Sudoeste 25 Sudoeste 0 958 -- 72
2020-11-20 10:00:00 11.3 14 Sudoeste 24 Sudoeste 0 957.7 -- 85
2020-11-20 09:00:00 9.9 14 Sudoeste 24 Sur 0 957.3 -- 91
2020-11-20 08:00:00 10.1 15 Sudoeste 20 Sur 0 957.5 -- 91
2020-11-20 07:00:00 9.5 11 Sudoeste 21 Sudoeste 0 957.5 -- 90
2020-11-20 06:00:00 10.6 13 Sudoeste 30 Sudoeste 0 957.5 -- 86
2020-11-20 05:00:00 11.2 17 Sudoeste 24 Sudoeste 0 957.8 -- 86
2020-11-20 04:00:00 11.1 10 Sudoeste 22 Sudoeste 0 957.9 -- 85
2020-11-20 03:00:00 10 0 Calma 16 Sudoeste 0 958.1 -- 84
2020-11-20 02:00:00 11.4 11 Sudoeste 18 Sudoeste 0 958.7 -- 83
2020-11-20 01:00:00 11.7 2 Oeste 19 Sudoeste 0 959.2 -- 80
2020-11-20 00:00:00 11.9 9 Sudoeste 13 Sur 0 959.8 -- 80
2020-11-19 23:00:00 12.7 8 Sudoeste 16 Sur 0 960.2 -- 80
2020-11-19 22:00:00 12.5 8 Sudoeste 15 Sudoeste 0 960.4 -- 81
2020-11-19 21:00:00 13.1 9 Oeste 12 Oeste 0 959.7 -- 78
2020-11-19 20:00:00 13.6 5 Sudoeste 11 Sur 0 959.7 -- 75
2020-11-19 19:00:00 14.2 3 Oeste 5 Sudoeste 0 959.1 -- 78
2020-11-19 18:00:00 16.5 0 Calma 8 Este 0 958.7 -- 65
2020-11-19 17:00:00 18.3 6 Este 12 Este 0 958.6 -- 58
2020-11-19 16:00:00 19.7 2 Sudeste 9 Este 0 959.2 -- 53
2020-11-19 15:00:00 19 3 Este 8 Este 0 959.3 -- 61
2020-11-19 14:00:00 16.9 0 Calma 7 Noroeste 0 960.1 -- 74
2020-11-19 13:00:00 13.3 3 Oeste 13 Oeste 0 960.8 -- 94
2020-11-19 12:00:00 12.6 7 Oeste 11 Oeste 0 960.8 -- 94
2020-11-19 11:00:00 12.1 5 Oeste 10 Noroeste 0 960.6 -- 94
2020-11-19 10:00:00 11 7 Oeste 11 Oeste 0 960.3 -- 95
2020-11-19 09:00:00 9.2 2 Norte 5 Norte 0 959.5 -- 95
2020-11-19 08:00:00 8.6 0 Calma 11 Oeste 0 958.8 -- 92
2020-11-19 07:00:00 10.1 6 Oeste 14 Sur 0 958.4 -- 91
2020-11-19 06:00:00 10.4 5 Sudoeste 14 Sudoeste 0 957.8 -- 91
2020-11-19 05:00:00 9.9 3 Sudoeste 12 Sudoeste 0 957.7 -- 91
2020-11-19 04:00:00 10.1 6 Sudoeste 12 Sudoeste 0 957.6 -- 92
2020-11-19 03:00:00 10.1 7 Sudoeste 12 Sudoeste 0 957.7 -- 92
2020-11-19 02:00:00 10.8 6 Sudoeste 11 Sudoeste 0 957.8 -- 92
2020-11-19 01:00:00 10.9 0 Calma 6 Sudoeste 0 957.9 -- 92
2020-11-19 00:00:00 11.4 5 Sudoeste 6 Sudoeste 0 958 -- 92
2020-11-18 23:00:00 11.7 3 Sudoeste 6 Sudoeste 0 958 -- 92
2020-11-18 22:00:00 12.1 0 Calma -- -- 0 957.7 -- 88
2020-11-18 21:00:00 12.9 0 Calma -- -- 0 957.5 -- 83
2020-11-18 20:00:00 13.6 0 Calma -- -- 0 957.2 -- 74
2020-11-18 19:00:00 15.1 0 Calma 4 Sudeste 0 956.9 -- 63
2020-11-18 18:00:00 17.6 0 Calma 6 Este 0 956.5 -- 49
2020-11-18 17:00:00 20.3 4 Este 9 Este 0 956.2 -- 42
2020-11-18 16:00:00 21 3 Este 12 Este 0 956 -- 43
2020-11-18 15:00:00 20.9 3 Este 10 Este 0 956.3 -- 43
2020-11-18 14:00:00 19.7 5 Este 12 Nordeste 0 956.7 -- 49
2020-11-18 13:00:00 18.5 6 Este 11 Este 0 957.5 -- 55
2020-11-18 12:00:00 17.2 0 Calma 8 Este 0 958.1 -- 62
2020-11-18 11:00:00 15.1 5 Este 9 Este 0 958.3 -- 74
2020-11-18 10:00:00 13.5 0 Calma 11 Sudoeste 0 958.2 -- 80
2020-11-18 09:00:00 10.4 0 Calma 14 Sudoeste 0 958 -- 97
2020-11-18 08:00:00 8.4 0 Calma 8 Sudoeste 0 957.5 -- 97
2020-11-18 07:00:00 8.1 0 Calma 10 Sudoeste 0 957.2 -- 97
2020-11-18 06:00:00 8.8 4 Sudoeste 10 Sudoeste 0 957.1 -- 97
2020-11-18 05:00:00 9.4 7 Oeste 10 Oeste 0 957 -- 96
2020-11-18 04:00:00 9.5 0 Calma 9 Sudoeste 0 957.1 -- 94
2020-11-18 03:00:00 10.6 5 Sudoeste 9 Sudoeste 0 957.2 -- 94
2020-11-18 02:00:00 10.5 0 Calma 6 Sudoeste 0 957.4 -- 94
2020-11-18 01:00:00 11.2 0 Calma 4 Sudoeste 0 957.5 -- 92
2020-11-18 00:00:00 12.2 0 Calma 6 Sudoeste 0 957.7 -- 89
2020-11-17 23:00:00 13.3 8 Sudoeste 15 Sudoeste 0 957.7 -- 89
2020-11-17 22:00:00 13.4 0 Calma 7 Sur 0 957.7 -- 86
2020-11-17 21:00:00 14.3 3 Norte 14 Sudoeste 0 957.4 -- 83
2020-11-17 20:00:00 15.2 6 Sudoeste 9 Sudoeste 0 956.7 -- 78
2020-11-17 19:00:00 15.6 4 Sudoeste 6 Oeste 0 956.3 -- 73
2020-11-17 18:00:00 18.4 0 Calma 6 Nordeste 0 955.9 -- 56
2020-11-17 17:00:00 20.6 3 Este 8 Nordeste 0 955.8 -- 51
2020-11-17 16:00:00 21.2 4 Este 10 Sudeste 0 955.7 -- 51
2020-11-17 15:00:00 20.5 3 Este 14 Nordeste 0 955.8 -- 54
2020-11-17 14:00:00 19.8 3 Este 13 Este 0 956.1 -- 57
2020-11-17 13:00:00 18.8 0 Calma 9 Norte 0 956.8 -- 63
2020-11-17 12:00:00 17.2 4 Nordeste 10 Nordeste 0 957.5 -- 71
2020-11-17 11:00:00 15.4 0 Calma 9 Nordeste 0 957.7 -- 84
2020-11-17 10:00:00 13.2 0 Calma 7 Sudoeste 0 957.6 -- 97
2020-11-17 09:00:00 10.4 4 Oeste 10 Oeste 0 957.1 -- 97
2020-11-17 08:00:00 9.3 0 Calma 4 Oeste 0 956.4 -- 96
2020-11-17 07:00:00 10.5 0 Calma 11 Sudoeste 0 955.9 -- 96
2020-11-17 06:00:00 10.5 5 Sudoeste 7 Sudoeste 0 955.9 -- 96
2020-11-17 05:00:00 11 0 Calma 9 Sudoeste 0 955.7 -- 96
2020-11-17 04:00:00 11.5 0 Calma 8 Sudoeste 0 955.7 -- 96
2020-11-17 03:00:00 11.3 2 Sudoeste 7 Oeste 0 955.8 -- 96
2020-11-17 02:00:00 11.4 3 Oeste 8 Sudoeste 0 956 -- 95
2020-11-17 01:00:00 12.2 0 Calma 8 Sudoeste 0 956 -- 93
2020-11-17 00:00:00 12.8 5 Sudoeste 11 Sudoeste 0 955.9 -- 92
2020-11-16 23:00:00 13.4 5 Sur 9 Sur 0 955.7 -- 91
2020-11-16 22:00:00 13.6 2 Sudeste 12 Sur 0 955.9 -- 87
2020-11-16 21:00:00 14.6 6 Sudoeste 14 Sudoeste 0 955.2 -- 83
2020-11-16 20:00:00 15.3 12 Sudoeste 18 Sudoeste 0 954.9 -- 81
2020-11-16 19:00:00 16.2 8 Sudoeste 14 Sudoeste 0 954.2 -- 75
2020-11-16 18:00:00 17.2 10 Sudoeste 21 Sudoeste 0 953.6 -- 69
2020-11-16 17:00:00 18.5 12 Sudoeste 19 Sudoeste 0 953.6 -- 63
2020-11-16 16:00:00 19.5 10 Sudoeste 22 Sur 0 952.8 -- 60
2020-11-16 15:00:00 20 13 Sudoeste 22 Sudoeste 0 952.9 -- 60
2020-11-16 14:00:00 19.7 11 Sudoeste 23 Sudoeste 0.1 953 -- 63
2020-11-16 13:00:00 19.1 12 Sudoeste 24 Sur 0 953.8 -- 67
2020-11-16 12:00:00 18.1 14 Sudoeste 21 Sur 0 954.6 -- 75
2020-11-16 11:00:00 16.4 4 Sudoeste 9 Sudoeste 0 954.3 -- 79
2020-11-16 10:00:00 16.9 0 Calma 12 Sur 0 953.8 -- 76
2020-11-16 09:00:00 16 8 Sudoeste 17 Sudoeste 0 952.9 -- 81
2020-11-16 08:00:00 14.8 9 Sudoeste 17 Sur 0 952.3 -- 82
2020-11-16 07:00:00 14.8 10 Sudoeste 16 Sur 0 952 -- 87
2020-11-16 06:00:00 13.2 6 Sur 11 Sudeste 0 951.4 -- 87
2020-11-16 05:00:00 13.6 3 Sudoeste 10 Sudoeste 0 951.3 -- 87
2020-11-16 04:00:00 13.7 2 Oeste 7 Sudoeste 0 952 -- 88
2020-11-16 03:00:00 13.5 0 Calma 12 Sudeste 0 952 -- 87
2020-11-16 02:00:00 14.4 2 Oeste 9 Oeste 0 952.4 -- 84
2020-11-16 01:00:00 14.6 2 Noroeste 8 Este 0 952.6 -- 83
2020-11-16 00:00:00 14.8 3 Sudeste 8 Sudeste 0 952.6 -- 80
2020-11-15 23:00:00 15.5 5 Sudeste 11 Sudeste 0 953.1 -- 78
2020-11-15 22:00:00 15.6 4 Sur 9 Sur 0 953.4 -- 74
2020-11-15 21:00:00 15.9 7 Sur 13 Sudeste 0 953.3 -- 71
2020-11-15 20:00:00 16.2 7 Sudeste 10 Sudeste 0 953.1 -- 69
2020-11-15 19:00:00 17.6 0 Calma -- -- 0 952.7 -- 63
2020-11-15 18:00:00 19.5 0 Calma 7 Nordeste 0 952.2 -- 52
2020-11-15 17:00:00 21.4 3 Noroeste 7 Este 0 951.7 -- 47
2020-11-15 16:00:00 22.2 3 Nordeste 11 Este 0 951.5 -- 47
2020-11-15 15:00:00 21.1 3 Norte 10 Nordeste 0 951.6 -- 50
2020-11-15 14:00:00 20.7 3 Sudeste 12 Nordeste 0 951.8 -- 53
2020-11-15 13:00:00 19.6 4 Sudeste 14 Este 0 952.4 -- 55
2020-11-15 12:00:00 18.7 0 Calma 10 Sur 0 953.1 -- 60
2020-11-15 11:00:00 17.1 2 Este 12 Sudoeste 0 953.5 -- 68
2020-11-15 10:00:00 14 8 Sudoeste 12 Sur 0 953.3 -- 82
2020-11-15 09:00:00 12.3 8 Sudoeste 14 Sudoeste 0 953.1 -- 95
2020-11-15 08:00:00 11.2 10 Sudoeste 16 Sudoeste 0 952.6 -- 95
2020-11-15 07:00:00 11.7 7 Sudoeste 13 Sudoeste 0 951.8 -- 95
2020-11-15 06:00:00 12 8 Sudoeste 13 Sudoeste 0 951.8 -- 97
2020-11-15 05:00:00 11.9 8 Sudoeste 12 Sur 0 951.6 -- 97
2020-11-15 04:00:00 11.7 5 Oeste 7 Oeste 0 951.8 -- 97
2020-11-15 03:00:00 12.8 0 Calma 7 Sur 0 952 -- 97
2020-11-15 02:00:00 11.9 0 Calma -- -- 0 951.9 -- 97
2020-11-15 01:00:00 12.3 0 Calma -- -- 0 952 -- 96
2020-11-15 00:00:00 12.7 0 Calma -- -- 0 952.3 -- 96
2020-11-14 23:00:00 13.3 0 Calma -- -- 0 952.6 -- 95
2020-11-14 22:00:00 13.5 0 Calma -- -- 0 952.3 -- 93
2020-11-14 21:00:00 14 0 Calma -- -- 0 952.1 -- 92
2020-11-14 20:00:00 14.2 0 Calma -- -- 0 952.1 -- 90
2020-11-14 19:00:00 14.5 0 Calma -- -- 0 951.4 -- 89
2020-11-14 18:00:00 15 0 Calma -- -- 0 951.1 -- 85
2020-11-14 17:00:00 15.7 0 Calma -- -- 0 951.1 -- 80
2020-11-14 16:00:00 16 0 Calma 3 Nordeste 0 950.8 -- 80
2020-11-14 15:00:00 15.8 0 Calma 8 Norte 0 951 -- 82
2020-11-14 14:00:00 15.8 0 Calma 6 Este 0 951.3 -- 85
2020-11-14 13:00:00 14.8 0 Calma 4 Norte 0 951.8 -- 96
2020-11-14 12:00:00 13.8 0 Calma -- -- 0.2 952.6 -- 97
2020-11-14 11:00:00 13.4 0 Calma -- -- 0 952.5 -- 97
2020-11-14 10:00:00 13.1 0 Calma -- -- 0 952.6 -- 97
2020-11-14 09:00:00 12.8 0 Calma -- -- 0.1 952.1 -- 96
2020-11-14 08:00:00 12.6 0 Calma -- -- 0 951.6 -- 96
2020-11-14 07:00:00 12.8 0 Calma -- -- 0 951.2 -- 95
2020-11-14 06:00:00 12.9 0 Calma -- -- 0 951.3 -- 94
2020-11-14 05:00:00 12.9 0 Calma -- -- 0 951.1 -- 94
2020-11-14 04:00:00 12.8 0 Calma 6 Oeste 0 951.3 -- 94
2020-11-14 03:00:00 12.7 0 Calma 4 Oeste 0 951.6 -- 94
2020-11-14 02:00:00 13 0 Calma 7 Noroeste 0 952 -- 93
2020-11-14 01:00:00 13 0 Calma -- -- 0 952.3 -- 94
2020-11-14 00:00:00 13 0 Calma -- -- 0 952.3 -- 93
2020-11-13 23:00:00 13.1 0 Calma -- -- 0 952.3 -- 92
2020-11-13 22:00:00 13.5 0 Calma 7 Nordeste 0 952 -- 88
2020-11-13 21:00:00 14.2 3 Nordeste 17 Nordeste 0 951.7 -- 84
2020-11-13 20:00:00 14.6 5 Nordeste 13 Nordeste 0 951.3 -- 71
2020-11-13 19:00:00 14.5 0 Calma -- -- 0 950.7 -- 63
2020-11-13 18:00:00 16.5 0 Calma -- -- 0 950.3 -- 51
2020-11-13 17:00:00 18.1 0 Calma 8 Noroeste 0 950 -- 46
2020-11-13 16:00:00 18.1 4 Oeste 10 Noroeste 0 950 -- 51
2020-11-13 15:00:00 18.9 0 Calma 10 Nordeste 0 950.1 -- 53
2020-11-13 14:00:00 18 4 Norte 10 Norte 0 950.6 -- 58
2020-11-13 13:00:00 17.6 2 Este 8 Nordeste 0 951.2 -- 63
2020-11-13 12:00:00 16.3 0 Calma 12 Nordeste 0 951.8 -- 70
2020-11-13 11:00:00 15.3 0 Calma 5 Noroeste 0 952.1 -- 78
2020-11-13 10:00:00 12.9 0 Calma -- -- 0 952 -- 90
2020-11-13 09:00:00 12.1 0 Calma -- -- 0 951.7 -- 91
2020-11-13 08:00:00 11.5 0 Calma 5 Sudoeste 0 951.1 -- 90
2020-11-13 07:00:00 11.4 0 Calma 3 Oeste 0 950.8 -- 91
2020-11-13 06:00:00 11.7 0 Calma 4 Oeste 0 950.7 -- 88
2020-11-13 05:00:00 11.6 0 Calma 5 Sudoeste 0 950.6 -- 87
2020-11-13 04:00:00 11.3 0 Calma 6 Oeste 0 950.9 -- 86
2020-11-13 03:00:00 11.6 2 Oeste 7 Oeste 0 951.1 -- 85
2020-11-13 02:00:00 11.6 0 Calma 4 Oeste 0 951.3 -- 84
2020-11-13 01:00:00 11.6 0 Calma 7 Oeste 0 951.8 -- 86
2020-11-13 00:00:00 11.6 0 Calma 8 Oeste 0 951.7 -- 89
2020-11-12 23:00:00 11 5 Oeste 8 Oeste 0 951.7 -- 89
2020-11-12 22:00:00 11.8 0 Calma 8 Nordeste 0 951.9 -- 83
2020-11-12 21:00:00 12.4 4 Nordeste 11 Nordeste 0 951.6 -- 75
2020-11-12 20:00:00 13.1 4 Nordeste 17 Nordeste 0 951.7 -- 65
2020-11-12 19:00:00 13.9 10 Nordeste 18 Nordeste 0 951.5 -- 57
2020-11-12 18:00:00 14.7 9 Nordeste 20 Nordeste 0 951.2 -- 47
2020-11-12 17:00:00 17.2 10 Nordeste 18 Nordeste 0 951 -- 41
2020-11-12 16:00:00 17.3 6 Nordeste 18 Nordeste 0 950.9 -- 39
2020-11-12 15:00:00 17.4 5 Norte 18 Norte 0 951.1 -- 44
2020-11-12 14:00:00 16.9 4 Nordeste 14 Norte 0 951.7 -- 49
2020-11-12 13:00:00 16.5 6 Nordeste 13 Norte 0 952.5 -- 51
2020-11-12 12:00:00 14.4 2 Norte 9 Oeste 0 953.4 -- 74
2020-11-12 11:00:00 12.4 2 Noroeste 9 Oeste 0 953.6 -- 99
2020-11-12 10:00:00 9.8 4 Oeste 9 Oeste 0 953.7 -- 99
2020-11-12 09:00:00 8.3 5 Sudoeste 13 Sudoeste 0 953.5 -- 99
2020-11-12 08:00:00 7.4 3 Sudoeste 9 Sudoeste 0 953.1 -- 99
2020-11-12 07:00:00 7.9 3 Sudoeste 12 Oeste 0 952.7 -- 99
2020-11-12 06:00:00 8.5 9 Sudoeste 13 Sudoeste 0 952.9 -- 99
2020-11-12 05:00:00 9.4 5 Sudoeste 8 Sudoeste 0 953.1 -- 98
2020-11-12 04:00:00 8.6 5 Sudoeste 12 Sudoeste 0 953.4 -- 98
2020-11-12 03:00:00 8.7 0 Calma 6 Oeste 0 953.7 -- 98
2020-11-12 02:00:00 9.2 3 Sudoeste 8 Sudoeste 0 954.1 -- 97
2020-11-12 01:00:00 9.2 0 Calma -- -- 0 954.4 -- 95
2020-11-12 00:00:00 9.9 0 Calma -- -- 0 954.7 -- 95
2020-11-11 23:00:00 10.3 0 Calma -- -- 0 954.8 -- 94
2020-11-11 22:00:00 10.8 0 Calma 4 Norte 0 954.3 -- 92
2020-11-11 21:00:00 11.5 0 Calma 9 Nordeste 0 954.1 -- 87
2020-11-11 20:00:00 11.8 0 Calma 5 Nordeste 0 954.1 -- 76
2020-11-11 19:00:00 12.8 0 Calma -- -- 0 953.6 -- 67
2020-11-11 18:00:00 14.8 0 Calma 12 Noroeste 0 953.2 -- 59
2020-11-11 17:00:00 16.3 5 Noroeste 13 Norte 0 953.2 -- 53
2020-11-11 16:00:00 17.5 4 Nordeste 13 Nordeste 0 953.3 -- 51
2020-11-11 15:00:00 17.4 9 Este 18 Nordeste 0 953.7 -- 53
2020-11-11 14:00:00 16.4 8 Nordeste 20 Nordeste 0 954.1 -- 59
2020-11-11 13:00:00 16.2 7 Nordeste 15 Este 0 954.9 -- 63
2020-11-11 12:00:00 14.7 3 Nordeste 11 Nordeste 0 955.8 -- 71
2020-11-11 11:00:00 12.7 5 Nordeste 10 Nordeste 0 956.3 -- 89
2020-11-11 10:00:00 11.8 0 Calma -- -- 0 956.4 -- 97
2020-11-11 09:00:00 10.9 0 Calma -- -- 0 956.2 -- 97
2020-11-11 08:00:00 10.5 0 Calma 7 Noroeste 0 956.3 -- 97
2020-11-11 07:00:00 10.7 0 Calma -- -- 0 956 -- 97
2020-11-11 06:00:00 10.7 0 Calma -- -- 0 956.2 -- 96
2020-11-11 05:00:00 11.3 0 Calma 6 Sudoeste 0 956.2 -- 95
2020-11-11 04:00:00 11.7 3 Sudoeste 6 Sudoeste 0 956.5 -- 95
2020-11-11 03:00:00 11.8 0 Calma 8 Oeste 0 956.7 -- 92
2020-11-11 02:00:00 11.6 0 Calma 5 Oeste 0 956.7 -- 92
2020-11-11 01:00:00 12 0 Calma -- -- 0 957.1 -- 92
2020-11-11 00:00:00 12.1 0 Calma 0 Calma 0 957.2 -- 92
2020-11-10 23:00:00 11.6 0 Calma 5 Norte 0 956.9 -- 83
2020-11-10 22:00:00 11 0 Calma 6 Oeste 0 957 -- 73
2020-11-10 21:00:00 11.8 4 Sudoeste 14 Sudoeste 0 956.6 -- 63
2020-11-10 20:00:00 13.1 8 Sudoeste 14 Sudoeste 0 956 -- 57
2020-11-10 19:00:00 14 9 Sudoeste 13 Sudoeste 0 955.8 -- 50
2020-11-10 18:00:00 15.8 7 Sudoeste 12 Sudoeste 0 955.5 -- 43
2020-11-10 17:00:00 17.7 7 Oeste 17 Oeste 0 954.9 -- 40
2020-11-10 16:00:00 18.2 6 Oeste 16 Oeste 0 954.9 -- 42
2020-11-10 15:00:00 18.3 6 Sudoeste 16 Sudoeste 0 954.9 -- 45
2020-11-10 14:00:00 17.6 3 Oeste 13 Oeste 0 955 -- 47
2020-11-10 13:00:00 17 6 Oeste 14 Sudoeste 0 955.7 -- 50
2020-11-10 12:00:00 15.8 6 Sudoeste 14 Oeste 0 956.3 -- 69
2020-11-10 11:00:00 14.1 9 Sur 19 Sur 0 956.6 -- 85
2020-11-10 10:00:00 12.1 10 Sudoeste 18 Sudoeste 0 956.5 -- 97
2020-11-10 09:00:00 10.1 7 Sudoeste 23 Sudoeste 0 956.2 -- 98
2020-11-10 08:00:00 9.7 11 Sudoeste 18 Sudoeste 0 955.4 -- 97
2020-11-10 07:00:00 10.2 7 Sudoeste 24 Sudoeste 0 954.8 -- 94
2020-11-10 06:00:00 10.7 10 Sudoeste 19 Sudoeste 0.1 954.2 -- 94
2020-11-10 05:00:00 10.8 5 Sudoeste 13 Sudoeste 0 954.2 -- 94
2020-11-10 04:00:00 11.3 5 Oeste 13 Sudoeste 0 954.2 -- 93
2020-11-10 03:00:00 11.2 6 Sudoeste 12 Sudoeste 0 954.3 -- 92
2020-11-10 02:00:00 11.8 5 Oeste 14 Sudoeste 0 954.1 -- 91
2020-11-10 01:00:00 12 8 Sudoeste 14 Sudoeste 0 954.3 -- 91
2020-11-10 00:00:00 12.5 6 Sudoeste 13 Sudoeste 0 954.6 -- 91
2020-11-09 23:00:00 12.6 8 Sudoeste 18 Sudoeste 0 954.5 -- 90
2020-11-09 22:00:00 13.5 12 Sudoeste 18 Sudoeste 0 954.4 -- 90
2020-11-09 21:00:00 13.4 7 Sudoeste 13 Oeste 0 953.9 -- 92
2020-11-09 20:00:00 13.6 9 Oeste 14 Sudoeste 2.6 953.9 -- 91
2020-11-09 19:00:00 15.1 5 Sur 10 Oeste 0.2 953.6 -- 70
2020-11-09 18:00:00 16 7 Sudoeste 13 Oeste 0 952.4 -- 59
2020-11-09 17:00:00 17.4 7 Sudoeste 13 Oeste 0 952.2 -- 51
2020-11-09 16:00:00 18.9 10 Sur 15 Sur 0 951.9 -- 46
2020-11-09 15:00:00 18.9 0 Calma 13 Nordeste 0 951.8 -- 44
2020-11-09 14:00:00 19.2 3 Nordeste 11 Nordeste 0 952 -- 49
2020-11-09 13:00:00 19.1 6 Nordeste 15 Nordeste 0 952.5 -- 51
2020-11-09 12:00:00 17.6 3 Nordeste 13 Este 0 953.3 -- 61
2020-11-09 11:00:00 15.7 0 Calma 9 Nordeste 0 953.5 -- 72
2020-11-09 10:00:00 13.3 0 Calma 7 Noroeste 0 953.4 -- 91
2020-11-09 09:00:00 10.1 3 Sudoeste 15 Sudoeste 0 953.2 -- 97
2020-11-09 08:00:00 8.8 5 Sudoeste 11 Sudoeste 0 952.6 -- 97
2020-11-09 07:00:00 8.9 4 Sudoeste 8 Sudoeste 0 952.2 -- 97
2020-11-09 06:00:00 8.3 0 Calma 4 Sudoeste 0 952.1 -- 97
2020-11-09 05:00:00 8.2 0 Calma -- -- 0 952 -- 97
2020-11-09 04:00:00 9.2 0 Calma 6 Sudoeste 0 951.7 -- 97
2020-11-09 03:00:00 9.1 0 Calma -- -- 0 952.2 -- 95
2020-11-09 02:00:00 9.7 0 Calma 7 Sudoeste 0 952.2 -- 94
2020-11-09 01:00:00 10.3 3 Sudoeste 7 Sudoeste 0 952.6 -- 92
2020-11-09 00:00:00 10.5 0 Calma 7 Sudoeste 0 952.7 -- 89
2020-11-08 23:00:00 11.1 0 Calma -- -- 0 952.8 -- 87
2020-11-08 22:00:00 11.5 0 Calma -- -- 0 952.4 -- 87
2020-11-08 21:00:00 11.9 0 Calma -- -- 0 952.5 -- 82
2020-11-08 20:00:00 12.6 0 Calma -- -- 0 952.4 -- 76
2020-11-08 19:00:00 13.7 0 Calma -- -- 0 952.3 -- 68
2020-11-08 18:00:00 16.1 0 Calma 9 Este 0 952 -- 55
2020-11-08 17:00:00 17.4 4 Nordeste 12 Nordeste 0 952 -- 51
2020-11-08 16:00:00 17.9 7 Nordeste 12 Nordeste 0 952.2 -- 51
2020-11-08 15:00:00 17.8 3 Norte 13 Nordeste 0 952.4 -- 51
2020-11-08 14:00:00 17.3 4 Nordeste 12 Nordeste 0 952.9 -- 55
2020-11-08 13:00:00 16.9 6 Nordeste 15 Nordeste 0 953.7 -- 58
2020-11-08 12:00:00 15.3 0 Calma 3 Este 0 954.6 -- 63
2020-11-08 11:00:00 13.9 0 Calma 7 Norte 0 954.7 -- 74
2020-11-08 10:00:00 11 5 Oeste 11 Oeste 0 954.8 -- 86
2020-11-08 09:00:00 9 5 Sudoeste 12 Sudoeste 0 954.6 -- 92
2020-11-08 08:00:00 8.2 5 Sudoeste 12 Sudoeste 0 954.2 -- 92
2020-11-08 07:00:00 8.2 6 Sudoeste 10 Sudoeste 0 953.9 -- 92
2020-11-08 06:00:00 8.2 6 Sudoeste 8 Oeste 0 953.8 -- 92
2020-11-08 05:00:00 8.4 0 Calma 4 Sur 0 954 -- 90
2020-11-08 04:00:00 8.6 0 Calma 7 Sudoeste 0 954 -- 88
2020-11-08 03:00:00 9.9 4 Sudoeste 12 Oeste 0 954.2 -- 84
2020-11-08 02:00:00 10 8 Noroeste 15 Sur 0 954.4 -- 81
2020-11-08 01:00:00 10.9 3 Nordeste 17 Sudoeste 0 954.7 -- 76
2020-11-08 00:00:00 11.7 9 Sudoeste 14 Sur 0 954.6 -- 74
2020-11-07 23:00:00 12 8 Sudoeste 14 Sudoeste 0 954.7 -- 67
2020-11-07 22:00:00 13.1 8 Sudoeste 18 Sur 0 954.4 -- 62
2020-11-07 21:00:00 13.8 10 Sur 21 Sudoeste 0 954 -- 58
2020-11-07 20:00:00 13.9 15 Sur 24 Sur 0 953.8 -- 57
2020-11-07 19:00:00 13.9 9 Sur 21 Sur 0 953.4 -- 57
2020-11-07 18:00:00 15 14 Sur 33 Sur 0 952.7 -- 52
2020-11-07 17:00:00 17.3 18 Sur 31 Sur 0 952 -- 46
2020-11-07 16:00:00 18.4 12 Sur 30 Sudeste 0 951.9 -- 48
2020-11-07 15:00:00 17.9 18 Sur 27 Sur 0 951.2 -- 53
2020-11-07 14:00:00 17.3 11 Sudeste 26 Sudeste 0 951 -- 59
2020-11-07 13:00:00 16.9 17 Sudeste 24 Sudeste 0 950.9 -- 64
2020-11-07 12:00:00 15.2 4 Este 9 Norte 0.4 951.1 -- 84
2020-11-07 11:00:00 14.8 0 Calma 8 Noroeste 0 950.3 -- 90
2020-11-07 10:00:00 12.6 0 Calma 11 Sudoeste 0 949.5 -- 97
2020-11-07 09:00:00 11.4 4 Oeste 6 Oeste 0 948.9 -- 97
2020-11-07 08:00:00 11.1 4 Sudoeste 9 Noroeste 0 948.3 -- 97
2020-11-07 07:00:00 11.3 3 Oeste 15 Oeste 0 947.4 -- 97
2020-11-07 06:00:00 11.7 3 Oeste 15 Noroeste 1.1 947 -- 95
2020-11-07 05:00:00 11.7 9 Sudeste 56 Este 4.2 948 -- 92
2020-11-07 04:00:00 14.2 13 Sur 24 Sudeste 0.3 946.4 -- 90
2020-11-07 03:00:00 15.4 13 Sur 21 Sur 0 946.5 -- 88
2020-11-07 02:00:00 15.3 4 Sur 11 Sudoeste 0 945.6 -- 89
2020-11-07 01:00:00 15.5 5 Sur 8 Sur 0 946 -- 88
2020-11-07 00:00:00 15.7 6 Oeste 15 Oeste 0 946.1 -- 87
2020-11-06 23:00:00 15.8 8 Oeste 21 Oeste 0 946.4 -- 89
2020-11-06 22:00:00 15.7 9 Oeste 22 Oeste 0 946.6 -- 89
2020-11-06 21:00:00 15.9 10 Oeste 21 Oeste 0 947.3 -- 89
2020-11-06 20:00:00 15.8 9 Oeste 21 Oeste 0 947.7 -- 89
2020-11-06 19:00:00 16.1 10 Oeste 23 Oeste 0 947.4 -- 89
2020-11-06 18:00:00 16.7 9 Oeste 19 Oeste 0 948 -- 84
2020-11-06 17:00:00 17.9 0 Calma -- -- 0 948.3 -- 75
2020-11-06 16:00:00 18.7 0 Calma 13 Norte 0 948.3 -- 72
2020-11-06 15:00:00 18.5 9 Norte 16 Norte 0 948.5 -- 72
2020-11-06 14:00:00 18.6 9 Norte 15 Nordeste 0 948.9 -- 77
2020-11-06 13:00:00 17.7 7 Nordeste 12 Nordeste 0 950 -- 88
2020-11-06 12:00:00 17.7 6 Norte 12 Norte 0 950.8 -- 90
2020-11-06 11:00:00 16.1 0 Calma 11 Noroeste 0 951.2 0.7 98
2020-11-06 10:00:00 14.3 0 Calma 6 Norte 0 951.2 -- 98
2020-11-06 09:00:00 13.1 4 Sudoeste 8 Sur 0 950.8 -- 98
2020-11-06 08:00:00 13.1 5 Sudoeste 9 Sudoeste 0 950.5 -- 98
2020-11-06 07:00:00 12.2 0 Calma 9 Sudoeste 0 950.2 -- 98
2020-11-06 06:00:00 12.1 0 Calma 10 Sudoeste 0 950.2 -- 97
2020-11-06 05:00:00 12.2 2 Sudoeste 13 Sudoeste 0 950.5 -- 97
2020-11-06 04:00:00 12 0 Calma 17 Sudoeste 0 950.4 -- 97
2020-11-06 03:00:00 12.1 7 Sudoeste 13 Sur 0 950.7 -- 97
2020-11-06 02:00:00 12.1 6 Sur 11 Sur 0 950.4 -- 96
2020-11-06 01:00:00 12 5 Sur 10 Sur 0 950.5 -- 96
2020-11-06 00:00:00 12.2 5 Sudoeste 9 Sur 0 950.5 -- 96
2020-11-05 23:00:00 13 7 Sudoeste 16 Sudoeste 0 950.8 -- 95
2020-11-05 22:00:00 13.2 6 Sudoeste 14 Sudoeste 0.1 950.8 -- 93
2020-11-05 21:00:00 13.3 4 Sudoeste 13 Oeste 0 950.4 -- 93
2020-11-05 20:00:00 14 8 Sudoeste 13 Sudoeste 0 950.1 -- 92
2020-11-05 19:00:00 14.1 5 Oeste 18 Oeste 0 949.5 -- 92
2020-11-05 18:00:00 15.1 6 Oeste 22 Noroeste 0 949 -- 91
2020-11-05 17:00:00 15.1 8 Oeste 26 Noroeste 0.2 948.6 -- 92
2020-11-05 16:00:00 15.3 11 Noroeste 34 Noroeste 1.7 948.7 -- 91
2020-11-05 15:00:00 15.4 17 Oeste 37 Oeste 4.2 948.2 -- 95
2020-11-05 14:00:00 15 18 Oeste 38 Oeste 0.8 947.9 -- 98
2020-11-05 13:00:00 14.1 11 Sudoeste 24 Sudoeste 7.2 949.4 -- 98
2020-11-05 12:00:00 14.3 12 Sudoeste 29 Sudoeste 0 950.4 -- 98
2020-11-05 11:00:00 13.4 17 Sudoeste 38 Sudoeste 0 950.9 -- 99
2020-11-05 10:00:00 13.6 15 Sudoeste 31 Sur 0.1 950.6 -- 99
2020-11-05 09:00:00 12.4 9 Sur 35 Sur 9.3 950.5 -- 99
2020-11-05 08:00:00 12.1 18 Sudoeste 35 Sudoeste 1.1 950 -- 99
2020-11-05 07:00:00 11.9 14 Sur 39 Sudeste 1.5 949.6 -- 98
2020-11-05 06:00:00 12.3 18 Sudeste 32 Sudeste 0 949.4 -- 98
2020-11-05 05:00:00 11.9 21 Este 42 Norte 0.1 948.9 -- 98
2020-11-05 04:00:00 11.9 17 Noroeste 38 Noroeste 0 949.1 -- 98
2020-11-05 03:00:00 11.7 17 Noroeste 44 Noroeste 0 949 -- 98
2020-11-05 02:00:00 11.3 14 Noroeste 27 Noroeste 0 949.5 -- 98
2020-11-05 01:00:00 11 11 Noroeste 24 Noroeste 0 949.8 -- 98
2020-11-05 00:00:00 11 6 Noroeste 22 Noroeste 0 950.1 -- 98
2020-11-04 23:00:00 11 10 Noroeste 22 Noroeste 0.5 949.8 -- 98
2020-11-04 22:00:00 11 15 Noroeste 24 Noroeste 0 949.6 -- 98
2020-11-04 21:00:00 10.9 12 Noroeste 28 Noroeste 0 949.2 -- 99
2020-11-04 20:00:00 10.7 18 Noroeste 36 Noroeste 0 948.6 -- 99
2020-11-04 19:00:00 10.7 19 Noroeste 37 Noroeste 0.7 948.4 -- 99
2020-11-04 18:00:00 10.6 17 Noroeste 35 Oeste 0.9 947.9 -- 99
2020-11-04 17:00:00 10.7 22 Oeste 40 Oeste 24.2 947.2 -- 99
2020-11-04 16:00:00 11.6 15 Oeste 28 Oeste 2.4 946.9 -- 97
2020-11-04 15:00:00 12.6 14 Noroeste 26 Noroeste 0 947.3 -- 90
2020-11-04 14:00:00 13.2 17 Noroeste 26 Noroeste 0.1 948 -- 90
2020-11-04 13:00:00 12.6 12 Oeste 23 Oeste 0.3 948.8 -- 82
2020-11-04 12:00:00 12.2 13 Oeste 20 Sudoeste 0 949.7 -- 92
2020-11-04 11:00:00 12.3 4 Oeste 12 Norte 0 950 0.3 98
2020-11-04 10:00:00 12.6 6 Norte 12 Norte 0.2 949.9 -- 98
2020-11-04 09:00:00 12.6 2 Nordeste 13 Este 3.2 949.8 -- 98
2020-11-04 08:00:00 13 3 Este 10 Este 2.7 949.7 -- 97
2020-11-04 07:00:00 13.1 0 Calma -- -- 0.6 949.7 -- 96
2020-11-04 06:00:00 13.2 0 Calma 10 Este 0 950.5 -- 96
2020-11-04 05:00:00 13.3 4 Sudeste 11 Este 0 950.7 -- 96
2020-11-04 04:00:00 13.3 6 Nordeste 16 Norte 0 950.8 -- 96
2020-11-04 03:00:00 13.6 9 Este 15 Nordeste 0 952 -- 96
2020-11-04 02:00:00 13.7 7 Este 13 Este 0 952.7 -- 96
2020-11-04 01:00:00 14.1 8 Este 17 Este 0 953.3 -- 96
2020-11-04 00:00:00 14.3 7 Nordeste 14 Este 0 953.5 -- 95
2020-11-03 23:00:00 14.7 3 Nordeste 10 Nordeste 0 953.8 -- 93
2020-11-03 22:00:00 14.9 5 Nordeste 13 Nordeste 0 954.4 -- 92
2020-11-03 21:00:00 15.4 0 Calma 13 Nordeste 0 954.3 -- 87
2020-11-03 20:00:00 15.7 3 Nordeste 14 Noroeste 0 953.9 -- 82
2020-11-03 19:00:00 16.3 4 Norte 16 Nordeste 0 953.6 -- 70
2020-11-03 18:00:00 17.8 8 Nordeste 18 Nordeste 0 952.8 -- 59
2020-11-03 17:00:00 20.3 12 Este 19 Este 0 952.3 -- 50
2020-11-03 16:00:00 22.2 10 Nordeste 20 Nordeste 0 952.2 -- 40
2020-11-03 15:00:00 22.8 9 Nordeste 18 Nordeste 0 952.3 -- 40
2020-11-03 14:00:00 22.6 5 Nordeste 15 Nordeste 0 952.5 -- 42
2020-11-03 13:00:00 21.9 5 Nordeste 16 Nordeste 0 953.4 -- 46
2020-11-03 12:00:00 20.6 4 Nordeste 12 Norte 0 954 -- 50
2020-11-03 11:00:00 18.9 5 Norte 9 Norte 0 954.2 -- 53
2020-11-03 10:00:00 16.4 4 Noroeste 13 Oeste 0 954 -- 56
2020-11-03 09:00:00 14 7 Oeste 14 Oeste 0 953.7 -- 61
2020-11-03 08:00:00 11.6 4 Oeste 14 Oeste 0 953 -- 66
2020-11-03 07:00:00 11.4 3 Sudoeste 12 Oeste 0 952.8 -- 67
2020-11-03 06:00:00 11.1 0 Calma 13 Oeste 0 952.6 -- 66
2020-11-03 05:00:00 12.4 4 Oeste 12 Oeste 0 952.4 -- 64
2020-11-03 04:00:00 12.6 6 Oeste 10 Oeste 0 952.6 -- 64
2020-11-03 03:00:00 12.4 0 Calma 14 Sudoeste 0 952.8 -- 62
2020-11-03 02:00:00 13.3 6 Oeste 10 Oeste 0 952.7 -- 61
2020-11-03 01:00:00 14 7 Oeste 9 Oeste 0 953 -- 61
2020-11-03 00:00:00 14.7 6 Oeste 10 Oeste 0 953.2 -- 61
2020-11-02 23:00:00 15.2 6 Oeste 9 Oeste 0 953.3 -- 64
2020-11-02 22:00:00 15.2 0 Calma -- -- 0 953.4 -- 61
2020-11-02 21:00:00 16.4 0 Calma 3 Oeste 0 953.3 -- 53
2020-11-02 20:00:00 17.8 0 Calma 6 Sudeste 0 953 -- 44
2020-11-02 19:00:00 19.5 0 Calma 10 Nordeste 0 952.2 -- 36
2020-11-02 18:00:00 23.3 5 Este 14 Nordeste 0 951.6 -- 30
2020-11-02 17:00:00 25.7 4 Este 10 Este 0 951.4 -- 29
2020-11-02 16:00:00 26.4 4 Nordeste 13 Nordeste 0 951.6 -- 29
2020-11-02 15:00:00 25.9 5 Este 13 Nordeste 0 951.8 -- 30
2020-11-02 14:00:00 24.9 0 Calma 16 Nordeste 0 952.3 -- 34
2020-11-02 13:00:00 24.1 3 Nordeste 12 Sudeste 0 953.2 -- 37
2020-11-02 12:00:00 23.2 3 Este 9 Este 0 953.8 -- 40
2020-11-02 11:00:00 20.2 0 Calma 9 Noroeste 0 954.2 -- 47
2020-11-02 10:00:00 17.7 5 Oeste 10 Noroeste 0 954.3 -- 54
2020-11-02 09:00:00 14.3 0 Calma 17 Oeste 0 954 -- 61
2020-11-02 08:00:00 12.2 8 Sudoeste 14 Sudoeste 0 953.5 -- 65
2020-11-02 07:00:00 12.2 6 Sudoeste 15 Oeste 0 953.1 -- 63
2020-11-02 06:00:00 13.3 10 Sudoeste 18 Oeste 0 953 -- 60
2020-11-02 05:00:00 13.5 9 Oeste 22 Oeste 0 953 -- 59
2020-11-02 04:00:00 13.3 11 Oeste 17 Oeste 0 953 -- 58
2020-11-02 03:00:00 13.7 9 Oeste 17 Oeste 0 953.5 -- 57
2020-11-02 02:00:00 13.8 9 Oeste 14 Oeste 0 953.6 -- 56
2020-11-02 01:00:00 14.5 4 Oeste 17 Oeste 0 953.9 -- 53
2020-11-02 00:00:00 15.5 8 Oeste 15 Noroeste 0 954.2 -- 51
2020-11-01 23:00:00 15.6 0 Calma 20 Sudoeste 0 954.5 -- 50
2020-11-01 22:00:00 16.3 15 Oeste 21 Oeste 0 954.2 -- 49
2020-11-01 21:00:00 17.8 2 Sudoeste 10 Sudoeste 0 954 -- 45
2020-11-01 20:00:00 17.8 0 Calma 12 Oeste 0 954 -- 42
2020-11-01 19:00:00 19.7 6 Oeste 10 Oeste 0 953.6 -- 37
2020-11-01 18:00:00 22.2 6 Oeste 11 Oeste 0 953.2 -- 31
2020-11-01 17:00:00 24.7 4 Oeste 12 Oeste 0 953 -- 28
2020-11-01 16:00:00 25.5 3 Oeste 13 Oeste 0 953.3 -- 29
2020-11-01 15:00:00 25.4 5 Oeste 15 Noroeste 0 953.4 -- 30
2020-11-01 14:00:00 25 5 Oeste 19 Sudoeste 0 953.9 -- 31
2020-11-01 13:00:00 24.1 7 Sudoeste 19 Sur 0 954.6 -- 34
2020-11-01 12:00:00 22.8 10 Sudoeste 19 Sudoeste 0 955.4 -- 38
2020-11-01 11:00:00 21.4 9 Oeste 19 Sudoeste 0 955.9 -- 42
2020-11-01 10:00:00 18.4 10 Sudoeste 15 Oeste 0 955.6 -- 49
2020-11-01 09:00:00 15 6 Sudoeste 19 Oeste 0 955.3 -- 56
2020-11-01 08:00:00 12.8 6 Oeste 17 Sudoeste 0 955.1 -- 59
2020-11-01 07:00:00 13.1 9 Sudoeste 14 Oeste 0 954.8 -- 58
2020-11-01 06:00:00 13.9 12 Sudoeste 17 Sudoeste 0 954.9 -- 55
2020-11-01 05:00:00 13.9 10 Sudoeste 15 Sudoeste 0 954.8 -- 54
2020-11-01 04:00:00 13.8 8 Oeste 15 Oeste 0 955.2 -- 54
2020-11-01 03:00:00 13.6 3 Noroeste 19 Oeste 0 955.3 -- 54
2020-11-01 02:00:00 13.9 12 Oeste 21 Oeste 0 955.3 -- 52
2020-11-01 01:00:00 14.6 10 Oeste 14 Sudoeste 0 955.4 -- 51
2020-11-01 00:00:00 15.5 6 Sudoeste 13 Oeste 0 955.6 -- 48
2020-10-31 23:00:00 15.2 5 Sudoeste 10 Sudoeste 0 955.5 -- 48
2020-10-31 22:00:00 16.5 6 Sudoeste 10 Sudoeste 0 955.5 -- 45
2020-10-31 21:00:00 16.3 0 Calma -- -- 0 955.2 -- 44
2020-10-31 20:00:00 17.5 0 Calma 7 Oeste 0 954.8 -- 38
2020-10-31 19:00:00 20.1 0 Calma 10 Oeste 0 954.3 -- 32
2020-10-31 18:00:00 22.4 5 Oeste 13 Oeste 0 953.8 -- 29
2020-10-31 17:00:00 24.1 9 Noroeste 18 Oeste 0 953.9 -- 28
2020-10-31 16:00:00 25 9 Oeste 22 Oeste 0 953.6 -- 28
2020-10-31 15:00:00 25 5 Oeste 33 Oeste 0 953.5 -- 29
2020-10-31 14:00:00 24.5 4 Noroeste 12 Noroeste 0 954.2 -- 31
2020-10-31 13:00:00 23.3 5 Nordeste 10 Este 0 955 -- 39
2020-10-31 12:00:00 20.7 3 Nordeste 8 Nordeste 0 955.8 -- 46
2020-10-31 11:00:00 19.6 0 Calma 9 Nordeste 0 956.3 -- 50
2020-10-31 10:00:00 15.8 4 Noroeste 9 Oeste 0 956.4 -- 62
2020-10-31 09:00:00 12.5 8 Oeste 14 Oeste 0 956.5 -- 75
2020-10-31 08:00:00 9.7 0 Calma 12 Oeste 0 955.9 -- 84
2020-10-31 07:00:00 9.7 0 Calma 12 Oeste 0 955.6 -- 82
2020-10-31 06:00:00 10.3 6 Oeste 12 Oeste 0 955.4 -- 82
2020-10-31 05:00:00 9.9 3 Noroeste 11 Oeste 0 955.2 -- 81
2020-10-31 04:00:00 10.6 6 Oeste 10 Oeste 0 955.2 -- 79
2020-10-31 03:00:00 10.7 4 Oeste 6 Oeste 0 955.6 -- 75
2020-10-31 02:00:00 11.5 3 Oeste 8 Oeste 0 955.7 -- 72
2020-10-31 01:00:00 12.3 0 Calma -- -- 0 955.9 -- 68
2020-10-31 00:00:00 12.8 0 Calma 5 Oeste 0 956.2 -- 65
2020-10-30 23:00:00 13.3 0 Calma -- -- 0 956.4 -- 62
2020-10-30 22:00:00 13.6 0 Calma -- -- 0 956.2 -- 61
2020-10-30 21:00:00 14.3 0 Calma 7 Sur 0 955.9 -- 59
2020-10-30 20:00:00 15.8 2 Sudeste 10 Este 0 955.7 -- 51
2020-10-30 19:00:00 18.3 0 Calma -- -- 0 955.4 -- 42
2020-10-30 18:00:00 21.3 0 Calma 13 Este 0 954.9 -- 37
2020-10-30 17:00:00 23.5 6 Nordeste 12 Este 0 954.6 -- 34
2020-10-30 16:00:00 24 6 Este 14 Este 0 954.7 -- 34
2020-10-30 15:00:00 24.1 6 Este 17 Este 0 955 -- 35
2020-10-30 14:00:00 22.2 4 Nordeste 15 Nordeste 0 955.6 -- 38
2020-10-30 13:00:00 21.2 5 Nordeste 15 Este 0 956.3 -- 42
2020-10-30 12:00:00 19.2 0 Calma 7 Nordeste 0 957.1 -- 53
2020-10-30 11:00:00 17.5 0 Calma 6 Noroeste 0 957.4 -- 63
2020-10-30 10:00:00 15 0 Calma 9 Oeste 0 957.4 -- 77
2020-10-30 09:00:00 11.5 2 Oeste 8 Oeste 0 957.1 -- 95
2020-10-30 08:00:00 9.2 0 Calma 11 Oeste 0 956.8 -- 94
2020-10-30 07:00:00 9.4 6 Oeste 10 Oeste 0 956.5 -- 94
2020-10-30 06:00:00 9.9 4 Oeste 9 Oeste 0 956.5 -- 94
2020-10-30 05:00:00 10.1 0 Calma 15 Oeste 0 956.4 -- 93
2020-10-30 04:00:00 10.1 9 Oeste 13 Oeste 0 956.7 -- 92
2020-10-30 03:00:00 11 5 Oeste 8 Oeste 0 956.7 -- 90
2020-10-30 02:00:00 10.9 0 Calma 6 Noroeste 0 956.9 -- 87
2020-10-30 01:00:00 12 6 Oeste 13 Oeste 0 957.2 -- 84
2020-10-30 00:00:00 13 8 Oeste 13 Oeste 0 957.2 -- 83
2020-10-29 23:00:00 12.9 0 Calma 8 Oeste 0 957.2 -- 80
2020-10-29 22:00:00 13.5 0 Calma 3 Sur 0 957.1 -- 78
2020-10-29 21:00:00 14.6 0 Calma 5 Sudoeste 0 956.8 -- 72
2020-10-29 20:00:00 15.3 4 Sur 8 Este 0 956.6 -- 60
2020-10-29 19:00:00 17.4 2 Sudeste 8 Nordeste 0 956.1 -- 47
2020-10-29 18:00:00 20.9 3 Nordeste 15 Este 0 955.3 -- 40
2020-10-29 17:00:00 22.9 4 Este 13 Este 0 955.1 -- 37
2020-10-29 16:00:00 23.5 5 Este 17 Este 0 955 -- 37
2020-10-29 15:00:00 22.8 9 Este 18 Sudeste 0 954.9 -- 40
2020-10-29 14:00:00 22.1 6 Este 12 Este 0 955.9 -- 42
2020-10-29 13:00:00 21.1 0 Calma 8 Nordeste 0 956.7 -- 48
2020-10-29 12:00:00 19 2 Norte 9 Oeste 0 957.4 -- 56
2020-10-29 11:00:00 16.8 3 Oeste 12 Sudoeste 0 957.5 -- 68
2020-10-29 10:00:00 14.3 9 Sudoeste 15 Oeste 0 957.6 -- 79
2020-10-29 09:00:00 12.1 9 Sudoeste 14 Sudoeste 0 957.2 -- 91
2020-10-29 08:00:00 10.4 9 Oeste 17 Oeste 0 956.5 -- 93
2020-10-29 07:00:00 10.2 0 Calma 17 Sudoeste 0 956.1 -- 92
2020-10-29 06:00:00 10.5 8 Oeste 17 Oeste 0 956.1 -- 92
2020-10-29 05:00:00 10.7 10 Oeste 19 Oeste 0 955.6 -- 89
2020-10-29 04:00:00 10.8 12 Oeste 19 Oeste 0 955.1 -- 88
2020-10-29 03:00:00 11.3 10 Oeste 17 Oeste 0 954.9 -- 85
2020-10-29 02:00:00 11.6 8 Oeste 25 Sudoeste 0 954.8 -- 81
2020-10-29 01:00:00 12.1 8 Oeste 18 Sudoeste 0 954.7 -- 78
2020-10-29 00:00:00 12.9 6 Sudoeste 18 Sudoeste 0 955 -- 75
2020-10-28 23:00:00 13.4 0 Calma 15 Oeste 0 955.1 -- 73
2020-10-28 22:00:00 14.1 0 Calma 25 Oeste 0 954.7 -- 72
2020-10-28 21:00:00 14.1 10 Oeste 18 Oeste 0 954.1 -- 72
2020-10-28 20:00:00 15.3 8 Oeste 14 Noroeste 0 953.4 -- 66
2020-10-28 19:00:00 16.4 0 Calma 20 Oeste 0 952.8 -- 60
2020-10-28 18:00:00 17.8 15 Oeste 24 Oeste 0 952 -- 55
2020-10-28 17:00:00 19.5 14 Oeste 23 Noroeste 0 951.9 -- 50
2020-10-28 16:00:00 21 10 Oeste 24 Oeste 0 951.7 -- 47
2020-10-28 15:00:00 20.5 6 Sudoeste 17 Sudoeste 0 951.7 -- 49
2020-10-28 14:00:00 18.8 10 Sudoeste 22 Sudoeste 0 952.1 -- 52
2020-10-28 13:00:00 17.1 13 Sudoeste 23 Sudoeste 0 952.5 -- 56
2020-10-28 12:00:00 16.2 14 Sudoeste 27 Sudoeste 0 953.2 -- 57
2020-10-28 11:00:00 15.2 18 Sudoeste 27 Sudoeste 0 953 -- 60
2020-10-28 10:00:00 13.6 17 Sudoeste 27 Sudoeste 0 952.8 -- 66
2020-10-28 09:00:00 11.7 9 Sudoeste 15 Sudoeste 0 952.5 -- 72
2020-10-28 08:00:00 9.7 8 Sudoeste 15 Sudoeste 0 951.8 -- 79
2020-10-28 07:00:00 9.4 5 Noroeste 20 Oeste 0 951.3 -- 78
2020-10-28 06:00:00 9.7 12 Sudoeste 24 Sudoeste 0 951 -- 78
2020-10-28 05:00:00 9 10 Oeste 24 Sudoeste 0 950.5 -- 78
2020-10-28 04:00:00 10 14 Sudoeste 30 Sudoeste 0 950.5 -- 73
2020-10-28 03:00:00 10.5 0 Calma 25 Oeste 0 950.3 -- 70
2020-10-28 02:00:00 10.1 16 Sudoeste 22 Sudoeste 0 950.4 -- 66
2020-10-28 01:00:00 10.1 4 Norte 17 Oeste 0 950.5 -- 63
2020-10-28 00:00:00 10 0 Calma 10 Oeste 0 950.7 -- 59